< < Back
Terminal Aerodrome Forecast


Current Version              Previous Versions:   1  2  3  4  5  6  7  8  9  

Terminal Aerodrome Forecast

179
FTUS44 KOHX 252300 RRA
TAFBNA
TAF
KBNA 252340Z 2600/2624 34003KT P6SM BKN170 OVC250
     FM260900 00000KT P6SM SCT250
     FM261600 18005KT P6SM SCT120 BKN250
     FM262000 20008KT P6SM -RA BKN050 BKN120=

Latest METAR

406
SAUS70 KWBC 260000 RRD
MTRBNA
METAR KBNA 252353Z 36004KT 10SM OVC170 07/M03 A3015 RMK AO2 SLP213
T00671033 10111 20067 53012


USA.gov is the U.S. government's official web portal to all federal, state and local government web resources and services.